Time;durP1;ratioP1;P1;durP2;ratioP2;P2;SDS_P1;SDS_P2;PMS_P1;PMS_P2;Temp;Humidity;BMP_temperature;BMP_pressure;BME280_temperature;BME280_humidity;BME280_pressure;Samples;Min_cycle;Max_cycle;Signal;HPM_P1;HPM_P2
2022/05/14 00:00:18;;;;;;;4.13;1.65;;;;;;;;;;5081642;28;20343;-19
2022/05/14 00:02:46;;;;;;;5.18;2.05;;;;;;;;;;5081251;28;20344;-19
2022/05/14 00:05:14;;;;;;;5.78;2.10;;;;;;;;;;5083580;28;20237;-19
2022/05/14 00:07:42;;;;;;;5.32;1.90;;;;;;;;;;5078782;28;20708;-18
2022/05/14 00:10:10;;;;;;;4.38;1.77;;;;;;;;;;5082831;28;20232;-19
2022/05/14 00:15:31;;;;;;;4.38;1.65;;;;;;;;;;5054454;28;20676;-19
2022/05/14 00:18:00;;;;;;;3.80;1.90;;;;;;;;;;5078878;28;20240;-19
2022/05/14 00:20:28;;;;;;;4.28;1.85;;;;;;;;;;5081389;28;20217;-19
2022/05/14 00:22:55;;;;;;;6.03;1.80;;;;;;;;;;5081906;28;20739;-19
2022/05/14 00:25:23;;;;;;;2.60;1.73;;;;;;;;;;5080423;28;20243;-18
2022/05/14 00:27:50;;;;;;;3.80;1.80;;;;;;;;;;5081497;28;20225;-19
2022/05/14 00:30:18;;;;;;;6.22;1.63;;;;;;;;;;5075461;28;20232;-19
2022/05/14 00:32:47;;;;;;;5.20;1.85;;;;;;;;;;5081048;28;20601;-19
2022/05/14 00:35:15;;;;;;;5.68;2.17;;;;;;;;;;5081839;28;20806;-19
2022/05/14 00:37:43;;;;;;;5.60;1.85;;;;;;;;;;5083561;28;20225;-19
2022/05/14 00:40:12;;;;;;;6.68;1.83;;;;;;;;;;5079086;28;20676;-19
2022/05/14 00:42:39;;;;;;;8.95;1.80;;;;;;;;;;5079123;28;20259;-19
2022/05/14 00:45:07;;;;;;;6.53;1.95;;;;;;;;;;5079561;28;20312;-19
2022/05/14 00:47:36;;;;;;;7.07;1.90;;;;;;;;;;5082830;28;20315;-19
2022/05/14 00:50:04;;;;;;;4.13;1.60;;;;;;;;;;5082847;28;20229;-18
2022/05/14 00:52:32;;;;;;;4.95;1.98;;;;;;;;;;5074727;28;20266;-19
2022/05/14 00:55:01;;;;;;;4.85;2.05;;;;;;;;;;5079600;28;20280;-18
2022/05/14 00:57:29;;;;;;;5.82;1.75;;;;;;;;;;5082224;28;20251;-17
2022/05/14 00:59:56;;;;;;;4.75;1.90;;;;;;;;;;5080064;28;20225;-18
2022/05/14 01:02:24;;;;;;;5.22;1.60;;;;;;;;;;5078672;28;20240;-20
2022/05/14 01:04:51;;;;;;;5.05;2.03;;;;;;;;;;5080498;28;20229;-18
2022/05/14 01:07:19;;;;;;;3.35;1.60;;;;;;;;;;5073239;28;20225;-19
2022/05/14 01:09:48;;;;;;;4.60;1.52;;;;;;;;;;5079392;28;20226;-18
2022/05/14 01:12:15;;;;;;;3.83;2.05;;;;;;;;;;5072034;28;20265;-19
2022/05/14 01:14:43;;;;;;;5.55;1.92;;;;;;;;;;5077005;28;20229;-19
2022/05/14 01:17:10;;;;;;;5.22;1.70;;;;;;;;;;5077303;28;20221;-19
2022/05/14 01:19:38;;;;;;;3.25;1.70;;;;;;;;;;5082127;28;20247;-19
2022/05/14 01:22:09;;;;;;;4.90;1.90;;;;;;;;;;5078572;28;20720;-19
2022/05/14 01:27:27;;;;;;;4.70;1.60;;;;;;;;;;5078061;28;20229;-19
2022/05/14 01:29:54;;;;;;;2.42;1.40;;;;;;;;;;5081314;28;20235;-19
2022/05/14 01:32:21;;;;;;;6.68;2.10;;;;;;;;;;5079667;28;20435;-19
2022/05/14 01:34:50;;;;;;;4.70;2.30;;;;;;;;;;5080378;28;20229;-19
2022/05/14 01:37:18;;;;;;;3.80;1.80;;;;;;;;;;5079999;28;20714;-19
2022/05/14 01:39:45;;;;;;;8.05;2.97;;;;;;;;;;5079955;28;20233;-19
2022/05/14 01:42:12;;;;;;;7.38;1.67;;;;;;;;;;5077771;28;20236;-19
2022/05/14 01:44:43;;;;;;;6.95;2.00;;;;;;;;;;5081212;28;20240;-19
2022/05/14 01:47:10;;;;;;;5.20;1.92;;;;;;;;;;5078460;28;20229;-19
2022/05/14 01:49:38;;;;;;;3.58;1.63;;;;;;;;;;5081947;28;20229;-19
2022/05/14 01:52:05;;;;;;;3.80;1.92;;;;;;;;;;5078783;28;20233;-19
2022/05/14 01:54:32;;;;;;;4.22;1.98;;;;;;;;;;5070194;28;20239;-19
2022/05/14 01:57:00;;;;;;;4.25;1.88;;;;;;;;;;5078188;28;20253;-19
2022/05/14 01:59:27;;;;;;;7.55;2.45;;;;;;;;;;5077839;28;20233;-19
2022/05/14 02:01:56;;;;;;;4.60;1.90;;;;;;;;;;5082632;28;20229;-19
2022/05/14 02:04:23;;;;;;;3.08;1.80;;;;;;;;;;5083739;28;20238;-19
2022/05/14 02:06:50;;;;;;;4.63;2.13;;;;;;;;;;5083042;28;20855;-18
2022/05/14 02:09:19;;;;;;;5.78;2.20;;;;;;;;;;5083505;28;20226;-19
2022/05/14 02:11:46;;;;;;;6.00;2.85;;;;;;;;;;5083441;28;20236;-19
2022/05/14 02:14:14;;;;;;;5.03;2.00;;;;;;;;;;5082622;28;20233;-19
2022/05/14 02:16:41;;;;;;;6.43;2.38;;;;;;;;;;5084369;28;20699;-19
2022/05/14 02:19:10;;;;;;;7.53;2.20;;;;;;;;;;5082218;28;20233;-19
2022/05/14 02:21:37;;;;;;;3.40;1.92;;;;;;;;;;5079525;28;20236;-19
2022/05/14 02:24:05;;;;;;;6.90;2.10;;;;;;;;;;5085417;28;20230;-18
2022/05/14 02:26:32;;;;;;;4.47;2.10;;;;;;;;;;5082469;28;20237;-19
2022/05/14 02:29:00;;;;;;;6.57;1.75;;;;;;;;;;5083005;28;20695;-18
2022/05/14 02:31:27;;;;;;;5.05;2.15;;;;;;;;;;5085492;28;20233;-19
2022/05/14 02:33:55;;;;;;;5.53;2.13;;;;;;;;;;5081561;28;20287;-19
2022/05/14 02:36:24;;;;;;;5.93;1.98;;;;;;;;;;5081957;28;20985;-19
2022/05/14 02:38:51;;;;;;;5.07;2.13;;;;;;;;;;5083673;28;20641;-19
2022/05/14 02:41:18;;;;;;;7.43;2.20;;;;;;;;;;5080530;28;20229;-19
2022/05/14 02:43:46;;;;;;;8.10;2.10;;;;;;;;;;5083393;28;20719;-19
2022/05/14 02:46:13;;;;;;;4.90;2.13;;;;;;;;;;5084707;28;20738;-19
2022/05/14 02:48:41;;;;;;;5.80;2.00;;;;;;;;;;5081995;28;20225;-19
2022/05/14 02:51:08;;;;;;;3.65;2.05;;;;;;;;;;5081337;28;20237;-19
2022/05/14 02:53:37;;;;;;;5.00;1.90;;;;;;;;;;5084507;28;20707;-19
2022/05/14 02:56:04;;;;;;;5.65;1.90;;;;;;;;;;5080375;28;20225;-19
2022/05/14 03:01:16;;;;;;;5.57;1.63;;;;;;;;;;5078955;28;20231;-19
2022/05/14 03:03:44;;;;;;;5.32;2.03;;;;;;;;;;5082062;28;20244;-19
2022/05/14 03:06:11;;;;;;;4.13;1.85;;;;;;;;;;5083350;28;20233;-19
2022/05/14 03:08:40;;;;;;;3.22;1.63;;;;;;;;;;5084088;28;20221;-19
2022/05/14 03:11:07;;;;;;;3.72;1.65;;;;;;;;;;5081122;28;20718;-19
2022/05/14 03:13:34;;;;;;;3.30;1.75;;;;;;;;;;5082376;28;20236;-19
2022/05/14 03:16:02;;;;;;;2.92;1.48;;;;;;;;;;5075994;28;20225;-19
2022/05/14 03:18:29;;;;;;;4.38;2.00;;;;;;;;;;5080650;28;20611;-19
2022/05/14 03:20:56;;;;;;;6.50;1.92;;;;;;;;;;5083512;28;20303;-19
2022/05/14 03:23:24;;;;;;;8.30;1.83;;;;;;;;;;5081131;28;20256;-19
2022/05/14 03:25:52;;;;;;;3.88;2.20;;;;;;;;;;5080702;28;20220;-19
2022/05/14 03:28:20;;;;;;;5.75;1.92;;;;;;;;;;5079955;28;20231;-19
2022/05/14 03:30:47;;;;;;;4.63;1.70;;;;;;;;;;5084636;28;20378;-19
2022/05/14 03:33:14;;;;;;;5.93;1.92;;;;;;;;;;5081943;28;20223;-19
2022/05/14 03:35:42;;;;;;;4.22;2.17;;;;;;;;;;5083048;28;20236;-19
2022/05/14 03:38:09;;;;;;;6.20;2.20;;;;;;;;;;5080099;28;20249;-19
2022/05/14 03:40:36;;;;;;;4.03;1.75;;;;;;;;;;5083520;28;21022;-19
2022/05/14 03:43:05;;;;;;;7.22;2.08;;;;;;;;;;5078283;28;20225;-19
2022/05/14 03:45:32;;;;;;;5.63;1.75;;;;;;;;;;5080282;28;20229;-19
2022/05/14 03:48:00;;;;;;;4.80;1.95;;;;;;;;;;5080316;28;20716;-19
2022/05/14 03:50:27;;;;;;;5.28;1.60;;;;;;;;;;5083316;28;20672;-19
2022/05/14 03:52:54;;;;;;;4.57;1.98;;;;;;;;;;5085016;28;20362;-19
2022/05/14 03:55:22;;;;;;;4.32;1.90;;;;;;;;;;5081944;28;20229;-19
2022/05/14 03:57:49;;;;;;;5.00;1.90;;;;;;;;;;5081464;28;20256;-19
2022/05/14 04:00:19;;;;;;;5.90;1.95;;;;;;;;;;5079447;28;21010;-19
2022/05/14 04:02:46;;;;;;;2.80;1.52;;;;;;;;;;5081879;28;20230;-19
2022/05/14 04:05:14;;;;;;;6.00;1.90;;;;;;;;;;5082540;28;20233;-19
2022/05/14 04:07:43;;;;;;;5.63;1.52;;;;;;;;;;5084107;28;20692;-18
2022/05/14 04:10:12;;;;;;;8.15;2.00;;;;;;;;;;5080862;28;20229;-19
2022/05/14 04:12:39;;;;;;;7.10;1.90;;;;;;;;;;5076693;28;20240;-19
2022/05/14 04:15:07;;;;;;;3.75;1.90;;;;;;;;;;5083569;28;20220;-19
2022/05/14 04:17:36;;;;;;;3.80;1.92;;;;;;;;;;5083325;28;20232;-19
2022/05/14 04:20:03;;;;;;;5.85;1.80;;;;;;;;;;5076294;28;20244;-19
2022/05/14 04:22:31;;;;;;;6.75;2.20;;;;;;;;;;5074660;28;20249;-20
2022/05/14 04:24:58;;;;;;;7.50;1.95;;;;;;;;;;5082547;28;20231;-19
2022/05/14 04:27:25;;;;;;;5.50;2.20;;;;;;;;;;5079397;28;20248;-19
2022/05/14 04:29:53;;;;;;;4.70;1.85;;;;;;;;;;5082091;28;20256;-18
2022/05/14 04:32:20;;;;;;;5.20;1.90;;;;;;;;;;5082724;28;20332;-18
2022/05/14 04:34:49;;;;;;;4.47;1.80;;;;;;;;;;5078645;28;20236;-18
2022/05/14 04:37:16;;;;;;;4.25;1.95;;;;;;;;;;5083205;28;20814;-18
2022/05/14 04:39:43;;;;;;;3.78;2.08;;;;;;;;;;5081786;28;20239;-18
2022/05/14 04:42:11;;;;;;;5.05;1.80;;;;;;;;;;5080350;28;20229;-18
2022/05/14 04:44:38;;;;;;;4.43;2.08;;;;;;;;;;5079139;28;20242;-18
2022/05/14 04:47:06;;;;;;;4.47;1.98;;;;;;;;;;5082777;28;20993;-18
2022/05/14 04:49:39;;;;;;;3.50;1.67;;;;;;;;;;5082661;28;20225;-18
2022/05/14 04:52:08;;;;;;;8.80;1.88;;;;;;;;;;5076124;28;20239;-18
2022/05/14 04:54:35;;;;;;;5.28;2.17;;;;;;;;;;5078866;28;20251;-17
2022/05/14 04:57:02;;;;;;;2.70;1.60;;;;;;;;;;5076912;28;20972;-17
2022/05/14 04:59:30;;;;;;;4.55;1.65;;;;;;;;;;5075560;28;20231;-17
2022/05/14 05:04:42;;;;;;;6.72;2.20;;;;;;;;;;5077616;28;20252;-20
2022/05/14 05:07:11;;;;;;;2.83;2.00;;;;;;;;;;5081129;28;20259;-19
2022/05/14 05:09:38;;;;;;;3.75;1.85;;;;;;;;;;5079318;28;20213;-19
2022/05/14 05:12:06;;;;;;;4.20;1.80;;;;;;;;;;5073923;28;20233;-18
2022/05/14 05:14:34;;;;;;;3.60;1.88;;;;;;;;;;5075266;28;20228;-19
2022/05/14 05:17:01;;;;;;;4.15;1.75;;;;;;;;;;5078679;28;20246;-19
2022/05/14 05:19:28;;;;;;;6.50;2.00;;;;;;;;;;5081243;28;20621;-19
2022/05/14 05:21:56;;;;;;;3.13;1.52;;;;;;;;;;5079254;28;20251;-19
2022/05/14 05:24:24;;;;;;;7.40;2.92;;;;;;;;;;5078944;28;20236;-19
2022/05/14 05:26:52;;;;;;;4.88;2.35;;;;;;;;;;5082719;28;20224;-19
2022/05/14 05:29:19;;;;;;;6.22;1.90;;;;;;;;;;5066955;28;20240;-19
2022/05/14 05:31:46;;;;;;;5.45;2.35;;;;;;;;;;5062527;28;20241;-19
2022/05/14 05:34:14;;;;;;;3.88;1.63;;;;;;;;;;5062774;28;20287;-19
2022/05/14 05:36:41;;;;;;;8.20;2.15;;;;;;;;;;5067714;28;20221;-18
2022/05/14 05:39:10;;;;;;;4.43;1.88;;;;;;;;;;5068615;28;20234;-19
2022/05/14 05:41:39;;;;;;;5.28;2.10;;;;;;;;;;5066643;28;20233;-18
2022/05/14 05:44:06;;;;;;;6.10;2.47;;;;;;;;;;5068296;28;20244;-19
2022/05/14 05:46:34;;;;;;;4.95;2.17;;;;;;;;;;5084164;28;20243;-19
2022/05/14 05:49:01;;;;;;;7.43;2.25;;;;;;;;;;5077821;28;20256;-20
2022/05/14 05:51:28;;;;;;;7.57;2.17;;;;;;;;;;5081696;28;20293;-19
2022/05/14 05:56:51;;;;;;;6.28;2.30;;;;;;;;;;5080277;28;20229;-19
2022/05/14 05:59:19;;;;;;;7.50;2.45;;;;;;;;;;5088149;28;21133;-19
2022/05/14 06:01:46;;;;;;;5.40;1.95;;;;;;;;;;5079275;28;20796;-19
2022/05/14 06:04:14;;;;;;;7.50;2.30;;;;;;;;;;5084739;28;20227;-19
2022/05/14 06:06:42;;;;;;;10.07;2.20;;;;;;;;;;5082708;28;20923;-19
2022/05/14 06:09:10;;;;;;;5.90;2.20;;;;;;;;;;5084411;28;20256;-19
2022/05/14 06:11:38;;;;;;;5.55;2.33;;;;;;;;;;5081748;28;20236;-19
2022/05/14 06:14:06;;;;;;;8.13;2.97;;;;;;;;;;5084745;28;20237;-19
2022/05/14 06:16:34;;;;;;;11.52;2.67;;;;;;;;;;5081786;28;20233;-19
2022/05/14 06:19:01;;;;;;;5.70;2.53;;;;;;;;;;5075611;28;20306;-19
2022/05/14 06:21:28;;;;;;;17.80;2.85;;;;;;;;;;5078912;28;20260;-19
2022/05/14 06:23:56;;;;;;;7.65;2.40;;;;;;;;;;5077863;28;20240;-19
2022/05/14 06:26:24;;;;;;;7.32;2.42;;;;;;;;;;5082257;28;20239;-19
2022/05/14 06:28:51;;;;;;;6.45;2.20;;;;;;;;;;5075990;28;20680;-19
2022/05/14 06:31:20;;;;;;;6.10;2.38;;;;;;;;;;5084277;28;20234;-19
2022/05/14 06:33:47;;;;;;;5.05;2.15;;;;;;;;;;5071205;28;20236;-19
2022/05/14 06:36:15;;;;;;;11.23;2.78;;;;;;;;;;5078550;28;20718;-19
2022/05/14 06:38:42;;;;;;;11.57;2.70;;;;;;;;;;5082042;28;20693;-19
2022/05/14 06:41:10;;;;;;;11.65;2.63;;;;;;;;;;5080116;28;20273;-19
2022/05/14 06:43:38;;;;;;;6.35;2.15;;;;;;;;;;5072781;28;20236;-19
2022/05/14 06:46:05;;;;;;;6.82;2.55;;;;;;;;;;5080160;28;20241;-19
2022/05/14 06:48:33;;;;;;;6.70;2.50;;;;;;;;;;5076329;28;20240;-19
2022/05/14 06:51:01;;;;;;;10.20;2.47;;;;;;;;;;5076873;28;20240;-19
2022/05/14 06:53:28;;;;;;;8.35;2.20;;;;;;;;;;5084030;28;20237;-19
2022/05/14 06:55:56;;;;;;;7.95;2.10;;;;;;;;;;5084513;28;20722;-18
2022/05/14 06:58:24;;;;;;;7.28;2.70;;;;;;;;;;5081200;28;20237;-19
2022/05/14 07:00:52;;;;;;;8.20;2.10;;;;;;;;;;5084981;28;20228;-20
2022/05/14 07:08:50;;;;;;;6.50;2.30;;;;;;;;;;5078508;28;20709;-19
2022/05/14 07:11:18;;;;;;;10.25;2.40;;;;;;;;;;5081018;28;20229;-19
2022/05/14 07:13:45;;;;;;;8.10;2.38;;;;;;;;;;5082791;28;20316;-19
2022/05/14 07:16:14;;;;;;;7.18;2.40;;;;;;;;;;5086273;28;20217;-18
2022/05/14 07:18:42;;;;;;;7.35;2.38;;;;;;;;;;5079839;28;20237;-19
2022/05/14 07:21:10;;;;;;;7.18;2.13;;;;;;;;;;5083948;28;20228;-19
2022/05/14 07:23:38;;;;;;;7.22;2.60;;;;;;;;;;5080279;28;20688;-19
2022/05/14 07:26:05;;;;;;;6.68;2.58;;;;;;;;;;5080827;28;20237;-19
2022/05/14 07:28:33;;;;;;;7.32;2.55;;;;;;;;;;5075881;28;20743;-20
2022/05/14 07:31:01;;;;;;;5.25;2.50;;;;;;;;;;5073612;28;20256;-19
2022/05/14 07:33:29;;;;;;;6.13;2.70;;;;;;;;;;5083310;28;20232;-19
2022/05/14 07:35:57;;;;;;;4.25;2.00;;;;;;;;;;5080853;28;20265;-19
2022/05/14 07:38:26;;;;;;;7.25;2.75;;;;;;;;;;5082870;28;20236;-19
2022/05/14 07:40:53;;;;;;;5.82;2.33;;;;;;;;;;5079186;28;21010;-19
2022/05/14 07:43:21;;;;;;;5.88;1.73;;;;;;;;;;5082018;28;20229;-19
2022/05/14 07:45:49;;;;;;;5.95;2.25;;;;;;;;;;5081900;28;20225;-19
2022/05/14 07:48:18;;;;;;;8.00;2.10;;;;;;;;;;5080172;28;20247;-19
2022/05/14 07:50:45;;;;;;;6.32;2.00;;;;;;;;;;5074959;28;20237;-19
2022/05/14 07:53:13;;;;;;;6.47;2.40;;;;;;;;;;5083146;28;20230;-19
2022/05/14 07:55:43;;;;;;;8.95;2.30;;;;;;;;;;5079172;28;20221;-18
2022/05/14 07:58:10;;;;;;;6.60;2.58;;;;;;;;;;5082233;28;20229;-19
2022/05/14 08:00:37;;;;;;;5.95;2.20;;;;;;;;;;5080147;28;20240;-19
2022/05/14 08:03:06;;;;;;;6.07;2.20;;;;;;;;;;5083392;28;20232;-19
2022/05/14 08:05:33;;;;;;;5.90;2.25;;;;;;;;;;5076168;28;20237;-20
2022/05/14 08:08:00;;;;;;;5.28;2.20;;;;;;;;;;5083514;28;20241;-19
2022/05/14 08:10:28;;;;;;;5.80;2.45;;;;;;;;;;5080249;28;20236;-19
2022/05/14 08:12:57;;;;;;;7.10;2.60;;;;;;;;;;5076835;28;20232;-19
2022/05/14 08:15:24;;;;;;;5.55;2.30;;;;;;;;;;5080163;28;20263;-19
2022/05/14 08:17:52;;;;;;;7.28;2.60;;;;;;;;;;5082155;28;20234;-19
2022/05/14 08:20:19;;;;;;;8.65;2.53;;;;;;;;;;5081125;28;20239;-19
2022/05/14 08:25:32;;;;;;;6.57;2.20;;;;;;;;;;5074458;28;20228;-19
2022/05/14 08:28:01;;;;;;;5.22;2.20;;;;;;;;;;5079166;28;20225;-19
2022/05/14 08:30:29;;;;;;;9.43;2.47;;;;;;;;;;5079770;28;20221;-19
2022/05/14 08:32:56;;;;;;;8.50;2.50;;;;;;;;;;5082546;28;20217;-19
2022/05/14 08:35:23;;;;;;;6.95;2.70;;;;;;;;;;5080008;28;20694;-19
2022/05/14 08:37:51;;;;;;;7.53;2.47;;;;;;;;;;5082144;28;20230;-20
2022/05/14 08:40:19;;;;;;;10.30;2.60;;;;;;;;;;5081117;28;20229;-19
2022/05/14 08:42:51;;;;;;;6.15;2.40;;;;;;;;;;5077362;28;20225;-19
2022/05/14 08:45:25;;;;;;;6.45;2.13;;;;;;;;;;5081668;28;20876;-19
2022/05/14 08:47:55;;;;;;;7.50;2.50;;;;;;;;;;5077661;28;20241;-19
2022/05/14 08:50:23;;;;;;;7.07;2.55;;;;;;;;;;5080396;28;20228;-19
2022/05/14 08:52:51;;;;;;;6.53;2.42;;;;;;;;;;5079434;28;20235;-19
2022/05/14 08:55:18;;;;;;;7.30;2.58;;;;;;;;;;5079683;28;20531;-18
2022/05/14 08:57:47;;;;;;;10.15;2.58;;;;;;;;;;5077767;28;20229;-19
2022/05/14 09:00:14;;;;;;;8.98;2.83;;;;;;;;;;5081946;28;20234;-19
2022/05/14 09:02:44;;;;;;;6.75;2.35;;;;;;;;;;5081958;28;20224;-19
2022/05/14 09:05:12;;;;;;;7.63;2.03;;;;;;;;;;5083362;28;20243;-19
2022/05/14 09:07:40;;;;;;;8.85;2.35;;;;;;;;;;5082983;28;20287;-18
2022/05/14 09:10:09;;;;;;;12.52;2.97;;;;;;;;;;5078448;28;20691;-19
2022/05/14 09:12:37;;;;;;;7.68;2.72;;;;;;;;;;5076736;28;20275;-19
2022/05/14 09:15:06;;;;;;;8.95;2.95;;;;;;;;;;5078915;28;20237;-19
2022/05/14 09:17:33;;;;;;;8.27;2.70;;;;;;;;;;5074954;28;20688;-19
2022/05/14 09:20:02;;;;;;;9.25;2.88;;;;;;;;;;5076217;28;20237;-19
2022/05/14 09:22:31;;;;;;;6.85;2.40;;;;;;;;;;5074232;28;20736;-19
2022/05/14 09:25:18;;;;;;;9.45;2.88;;;;;;;;;;5078484;28;20223;-19
2022/05/14 09:27:45;;;;;;;9.25;2.90;;;;;;;;;;5076947;28;20228;-19
2022/05/14 09:30:14;;;;;;;9.23;3.65;;;;;;;;;;5078719;28;20695;-19
2022/05/14 09:32:43;;;;;;;10.23;3.47;;;;;;;;;;5077222;28;20229;-20
2022/05/14 09:35:13;;;;;;;12.35;3.35;;;;;;;;;;5081442;28;20770;-20
2022/05/14 09:37:48;;;;;;;6.97;2.67;;;;;;;;;;5080056;28;20252;-19
2022/05/14 09:40:20;;;;;;;13.13;3.45;;;;;;;;;;5080664;28;20236;-19
2022/05/14 09:42:48;;;;;;;9.82;3.22;;;;;;;;;;5077932;28;20228;-19
2022/05/14 09:45:20;;;;;;;12.15;3.20;;;;;;;;;;5080261;28;20237;-19
2022/05/14 09:47:48;;;;;;;8.38;3.20;;;;;;;;;;5080067;28;20240;-19
2022/05/14 09:50:18;;;;;;;13.32;3.17;;;;;;;;;;5079973;28;20924;-19
2022/05/14 09:52:55;;;;;;;11.45;3.38;;;;;;;;;;5077720;28;20236;-19
2022/05/14 09:55:22;;;;;;;9.95;3.20;;;;;;;;;;5078078;28;20218;-19
2022/05/14 09:57:50;;;;;;;8.95;2.92;;;;;;;;;;5081982;28;20233;-19
2022/05/14 10:00:20;;;;;;;11.35;3.50;;;;;;;;;;5079665;28;20718;-19
2022/05/14 10:03:06;;;;;;;8.35;3.15;;;;;;;;;;5079429;28;20241;-19
2022/05/14 10:05:39;;;;;;;8.68;2.60;;;;;;;;;;5078637;28;20261;-19
2022/05/14 10:08:08;;;;;;;10.23;3.35;;;;;;;;;;5074802;28;21037;-19
2022/05/14 10:10:38;;;;;;;7.47;2.75;;;;;;;;;;5081390;28;20269;-19
2022/05/14 10:13:05;;;;;;;9.38;3.00;;;;;;;;;;5077630;28;20233;-18
2022/05/14 10:15:35;;;;;;;8.75;2.85;;;;;;;;;;5077647;28;20236;-20
2022/05/14 10:18:04;;;;;;;9.77;3.15;;;;;;;;;;5074183;28;20225;-18
2022/05/14 10:20:34;;;;;;;10.02;3.00;;;;;;;;;;5074367;28;20712;-18
2022/05/14 10:28:48;;;;;;;10.32;3.35;;;;;;;;;;5080257;28;20243;-20
2022/05/14 10:31:16;;;;;;;7.50;3.08;;;;;;;;;;5082809;28;20260;-20
2022/05/14 10:33:43;;;;;;;10.13;3.42;;;;;;;;;;5083620;28;20259;-20
2022/05/14 10:36:14;;;;;;;10.20;2.70;;;;;;;;;;5080892;28;20225;-19
2022/05/14 10:38:44;;;;;;;6.32;2.50;;;;;;;;;;5078708;28;20684;-20
2022/05/14 10:41:12;;;;;;;6.88;3.03;;;;;;;;;;5082305;28;20238;-20
2022/05/14 10:43:41;;;;;;;11.07;3.45;;;;;;;;;;5084381;28;20319;-20
2022/05/14 10:46:09;;;;;;;12.15;3.85;;;;;;;;;;5085657;28;20225;-19
2022/05/14 10:48:38;;;;;;;11.88;3.15;;;;;;;;;;5080133;28;20248;-20
2022/05/14 10:51:06;;;;;;;8.77;3.00;;;;;;;;;;5084915;28;20233;-19
2022/05/14 10:53:33;;;;;;;8.55;3.22;;;;;;;;;;5080463;28;20237;-20
2022/05/14 10:56:03;;;;;;;9.02;3.72;;;;;;;;;;5077039;28;20311;-19
2022/05/14 10:58:42;;;;;;;12.77;3.53;;;;;;;;;;5074348;28;20230;-19
2022/05/14 11:01:10;;;;;;;9.98;3.58;;;;;;;;;;5078574;28;20238;-20
2022/05/14 11:03:38;;;;;;;12.77;3.10;;;;;;;;;;5084542;28;20224;-19
2022/05/14 11:06:07;;;;;;;8.18;2.85;;;;;;;;;;5081317;28;20230;-19
2022/05/14 11:08:35;;;;;;;7.72;3.25;;;;;;;;;;5084240;28;20244;-19
2022/05/14 11:11:06;;;;;;;8.52;3.42;;;;;;;;;;5083787;28;21017;-19
2022/05/14 11:13:34;;;;;;;7.15;2.67;;;;;;;;;;5081559;28;20761;-19
2022/05/14 11:16:02;;;;;;;9.98;3.17;;;;;;;;;;5073945;28;20250;-19
2022/05/14 11:18:29;;;;;;;11.15;3.45;;;;;;;;;;5081112;28;20229;-19
2022/05/14 11:20:57;;;;;;;9.40;3.03;;;;;;;;;;5069278;28;20705;-19
2022/05/14 11:23:31;;;;;;;8.38;3.05;;;;;;;;;;5076017;28;20243;-19
2022/05/14 11:26:07;;;;;;;10.10;3.25;;;;;;;;;;5075699;28;20233;-20
2022/05/14 11:28:35;;;;;;;11.43;3.10;;;;;;;;;;5076442;28;20244;-19
2022/05/14 11:31:16;;;;;;;12.45;3.60;;;;;;;;;;5073983;28;20233;-19
2022/05/14 11:33:43;;;;;;;13.98;3.38;;;;;;;;;;5077581;28;21025;-19
2022/05/14 11:36:21;;;;;;;11.27;3.75;;;;;;;;;;5078307;28;20286;-18
2022/05/14 11:38:52;;;;;;;10.35;3.65;;;;;;;;;;5078940;28;20396;-20
2022/05/14 11:41:28;;;;;;;10.95;3.22;;;;;;;;;;5082173;28;20236;-19
2022/05/14 11:43:55;;;;;;;11.68;3.53;;;;;;;;;;5079583;28;20229;-20
2022/05/14 11:46:25;;;;;;;13.77;3.67;;;;;;;;;;5082595;28;20222;-20
2022/05/14 11:48:54;;;;;;;10.25;3.47;;;;;;;;;;5081244;28;20327;-20
2022/05/14 11:51:25;;;;;;;10.15;3.55;;;;;;;;;;5082404;28;20272;-18
2022/05/14 11:53:55;;;;;;;11.00;3.65;;;;;;;;;;5071997;28;20233;-19
2022/05/14 11:56:24;;;;;;;11.60;4.03;;;;;;;;;;5079630;28;20319;-19
2022/05/14 11:58:54;;;;;;;10.40;3.90;;;;;;;;;;5078834;28;20240;-19
2022/05/14 12:01:23;;;;;;;9.05;3.58;;;;;;;;;;5073804;28;20232;-19
2022/05/14 12:03:50;;;;;;;9.88;3.70;;;;;;;;;;5081353;28;20225;-19
2022/05/14 12:06:27;;;;;;;11.13;3.08;;;;;;;;;;5078845;28;20298;-19
2022/05/14 12:09:03;;;;;;;10.88;3.50;;;;;;;;;;5081145;28;20556;-20
2022/05/14 12:11:32;;;;;;;9.95;3.65;;;;;;;;;;5069628;28;20224;-19
2022/05/14 12:14:04;;;;;;;10.63;3.92;;;;;;;;;;5082381;28;20280;-19
2022/05/14 12:16:32;;;;;;;11.25;4.22;;;;;;;;;;5071174;28;20251;-20
2022/05/14 12:18:59;;;;;;;6.93;3.00;;;;;;;;;;5074958;28;20989;-19
2022/05/14 12:21:27;;;;;;;8.68;3.65;;;;;;;;;;5078870;28;20245;-20
2022/05/14 12:23:54;;;;;;;10.20;3.20;;;;;;;;;;5076134;28;20236;-19
2022/05/14 12:26:23;;;;;;;11.95;4.25;;;;;;;;;;5079733;28;20233;-19
2022/05/14 12:28:50;;;;;;;13.27;3.30;;;;;;;;;;5069516;28;20245;-19
2022/05/14 12:34:08;;;;;;;11.00;3.65;;;;;;;;;;5076304;28;20209;-20
2022/05/14 12:36:36;;;;;;;9.40;3.38;;;;;;;;;;5083074;28;20269;-19
2022/05/14 12:39:07;;;;;;;10.65;3.53;;;;;;;;;;5078755;28;20233;-20
2022/05/14 12:41:40;;;;;;;8.25;3.25;;;;;;;;;;5066765;28;20243;-19
2022/05/14 12:44:10;;;;;;;11.27;3.00;;;;;;;;;;5078750;28;20229;-19
2022/05/14 12:46:39;;;;;;;13.20;3.70;;;;;;;;;;5072995;28;20233;-19
2022/05/14 12:49:07;;;;;;;10.07;3.55;;;;;;;;;;5081237;28;20244;-19
2022/05/14 12:51:34;;;;;;;11.00;3.40;;;;;;;;;;5069686;28;20808;-19
2022/05/14 12:54:01;;;;;;;8.45;3.50;;;;;;;;;;5070183;28;20243;-19
2022/05/14 12:56:39;;;;;;;9.55;3.63;;;;;;;;;;5076259;28;20233;-19
2022/05/14 12:59:07;;;;;;;8.50;3.35;;;;;;;;;;5072495;28;20230;-19
2022/05/14 13:01:34;;;;;;;10.70;3.42;;;;;;;;;;5081484;28;20233;-19
2022/05/14 13:04:04;;;;;;;8.27;3.28;;;;;;;;;;5076136;28;20229;-20
2022/05/14 13:06:32;;;;;;;7.43;3.40;;;;;;;;;;5074585;28;20731;-19
2022/05/14 13:09:05;;;;;;;8.82;3.42;;;;;;;;;;5076729;28;20237;-19
2022/05/14 13:11:32;;;;;;;10.45;3.42;;;;;;;;;;5073529;28;20229;-19
2022/05/14 13:14:00;;;;;;;9.55;3.58;;;;;;;;;;5076242;28;20429;-19
2022/05/14 13:16:28;;;;;;;8.80;3.58;;;;;;;;;;5080760;28;21094;-19
2022/05/14 13:18:56;;;;;;;14.60;3.85;;;;;;;;;;5077433;28;20666;-19
2022/05/14 13:21:26;;;;;;;14.27;3.40;;;;;;;;;;5069412;28;20240;-19
2022/05/14 13:23:55;;;;;;;7.22;2.95;;;;;;;;;;5079605;28;20234;-19
2022/05/14 13:26:26;;;;;;;7.13;3.10;;;;;;;;;;5071686;28;20838;-19
2022/05/14 13:28:54;;;;;;;15.48;3.60;;;;;;;;;;5081348;28;20268;-19
2022/05/14 13:31:22;;;;;;;25.00;3.33;;;;;;;;;;5070889;28;20233;-19
2022/05/14 13:33:56;;;;;;;17.35;4.10;;;;;;;;;;5079339;28;20236;-19
2022/05/14 13:39:11;;;;;;;18.27;4.00;;;;;;;;;;5076051;28;20236;-19
2022/05/14 13:41:40;;;;;;;13.93;4.13;;;;;;;;;;5072829;28;21116;-20
2022/05/14 13:44:08;;;;;;;11.68;3.63;;;;;;;;;;5067495;28;20241;-19
2022/05/14 13:46:38;;;;;;;12.65;4.18;;;;;;;;;;5060783;28;20691;-19
2022/05/14 13:49:05;;;;;;;16.17;4.00;;;;;;;;;;5064408;28;20277;-20
2022/05/14 13:51:36;;;;;;;12.50;3.75;;;;;;;;;;5073654;28;20239;-19
2022/05/14 13:54:11;;;;;;;13.13;3.40;;;;;;;;;;5074799;28;20230;-20
2022/05/14 13:56:39;;;;;;;16.30;3.72;;;;;;;;;;5076231;28;20221;-20
2022/05/14 13:59:20;;;;;;;9.85;3.58;;;;;;;;;;5083383;28;20255;-20
2022/05/14 14:01:48;;;;;;;11.50;3.70;;;;;;;;;;5085631;28;20221;-19
2022/05/14 14:04:17;;;;;;;12.57;3.25;;;;;;;;;;5083446;28;20681;-19
2022/05/14 14:06:46;;;;;;;10.75;3.65;;;;;;;;;;5080881;28;20779;-20
2022/05/14 14:09:13;;;;;;;11.73;3.78;;;;;;;;;;5084358;28;20241;-19
2022/05/14 14:11:44;;;;;;;9.80;3.25;;;;;;;;;;5082419;28;20229;-20
2022/05/14 14:14:12;;;;;;;11.55;3.75;;;;;;;;;;5082261;28;20225;-19
2022/05/14 14:16:41;;;;;;;10.43;3.70;;;;;;;;;;5077104;28;20308;-20
2022/05/14 14:19:09;;;;;;;10.27;3.28;;;;;;;;;;5076149;28;20231;-20
2022/05/14 14:21:36;;;;;;;11.82;3.33;;;;;;;;;;5080914;28;20231;-19
2022/05/14 14:24:05;;;;;;;13.45;3.88;;;;;;;;;;5073296;28;20705;-20
2022/05/14 14:26:32;;;;;;;10.18;3.65;;;;;;;;;;5076223;28;20233;-19
2022/05/14 14:29:00;;;;;;;11.85;3.90;;;;;;;;;;5075173;28;20225;-19
2022/05/14 14:31:27;;;;;;;11.82;3.40;;;;;;;;;;5084638;28;20245;-20
2022/05/14 14:33:55;;;;;;;13.85;3.35;;;;;;;;;;5082300;28;20224;-19
2022/05/14 14:36:24;;;;;;;12.25;3.78;;;;;;;;;;5085456;28;20235;-20
2022/05/14 14:38:51;;;;;;;7.60;3.00;;;;;;;;;;5082548;28;20611;-20
2022/05/14 14:41:20;;;;;;;9.93;2.97;;;;;;;;;;5082983;28;20228;-20
2022/05/14 14:43:48;;;;;;;10.82;3.38;;;;;;;;;;5083154;28;20244;-20
2022/05/14 14:46:16;;;;;;;9.65;3.35;;;;;;;;;;5084656;28;20229;-18
2022/05/14 14:48:48;;;;;;;10.30;3.10;;;;;;;;;;5083114;28;20224;-19
2022/05/14 14:51:15;;;;;;;8.65;3.53;;;;;;;;;;5080644;28;20244;-19
2022/05/14 14:53:42;;;;;;;12.30;2.95;;;;;;;;;;5082608;28;20238;-19
2022/05/14 14:56:10;;;;;;;8.75;3.40;;;;;;;;;;5083882;28;20225;-19
2022/05/14 14:58:43;;;;;;;6.35;2.67;;;;;;;;;;5082186;28;20229;-18
2022/05/14 15:01:11;;;;;;;9.82;3.40;;;;;;;;;;5079573;28;20226;-18
2022/05/14 15:03:39;;;;;;;13.63;3.45;;;;;;;;;;5083469;28;20248;-18
2022/05/14 15:06:07;;;;;;;12.30;3.60;;;;;;;;;;5081101;28;20742;-19
2022/05/14 15:08:36;;;;;;;10.15;3.50;;;;;;;;;;5084155;28;20811;-19
2022/05/14 15:11:04;;;;;;;10.65;3.70;;;;;;;;;;5076349;28;20269;-19
2022/05/14 15:13:32;;;;;;;6.93;3.65;;;;;;;;;;5080519;28;21030;-19
2022/05/14 15:16:01;;;;;;;13.55;3.53;;;;;;;;;;5084178;28;20221;-19
2022/05/14 15:18:28;;;;;;;14.85;3.40;;;;;;;;;;5081470;28;20302;-18
2022/05/14 15:20:56;;;;;;;11.40;3.78;;;;;;;;;;5083915;28;20225;-18